createdAt,value
2019-05-19T00:01:30.863Z,17.60
2019-05-19T00:03:59.531Z,17.67
2019-05-19T00:06:28.039Z,17.73
2019-05-19T00:08:56.803Z,17.77
2019-05-19T00:11:25.392Z,17.32
2019-05-19T00:13:55.032Z,16.49
2019-05-19T00:16:23.545Z,16.85
2019-05-19T00:18:52.361Z,17.30
2019-05-19T00:21:21.029Z,17.57
2019-05-19T00:23:49.527Z,17.75
2019-05-19T00:26:18.059Z,17.86
2019-05-19T00:28:46.563Z,17.96
2019-05-19T00:31:15.056Z,17.98
2019-05-19T00:33:43.646Z,18.03
2019-05-19T00:36:12.100Z,18.09
2019-05-19T00:38:40.599Z,18.14
2019-05-19T00:41:09.453Z,18.18
2019-05-19T00:43:37.949Z,18.14
2019-05-19T00:46:06.459Z,18.14
2019-05-19T00:48:34.956Z,18.07
2019-05-19T00:51:03.483Z,18.00
2019-05-19T00:53:31.987Z,17.88
2019-05-19T00:56:00.664Z,17.81
2019-05-19T00:58:29.419Z,17.66
2019-05-19T01:00:58.224Z,17.50
2019-05-19T01:03:27.507Z,17.25
2019-05-19T01:05:56.132Z,17.23
2019-05-19T01:08:24.625Z,17.24
2019-05-19T01:10:53.127Z,17.30
2019-05-19T01:13:21.662Z,17.22
2019-05-19T01:15:50.165Z,17.28
2019-05-19T01:18:18.926Z,17.48
2019-05-19T01:20:47.420Z,17.58
2019-05-19T01:23:15.920Z,17.69
2019-05-19T01:25:44.771Z,17.75
2019-05-19T01:28:13.260Z,17.74
2019-05-19T01:30:42.049Z,17.75
2019-05-19T01:33:10.907Z,17.71
2019-05-19T01:35:40.058Z,17.60
2019-05-19T01:38:08.547Z,17.49
2019-05-19T01:40:37.101Z,17.52
2019-05-19T01:43:05.838Z,17.51
2019-05-19T01:45:34.331Z,17.48
2019-05-19T01:48:02.825Z,17.14
2019-05-19T01:50:31.562Z,16.90
2019-05-19T01:53:00.072Z,16.78
2019-05-19T01:55:28.909Z,16.88
2019-05-19T01:57:57.412Z,17.02
2019-05-19T02:00:26.206Z,17.11
2019-05-19T02:02:54.737Z,16.88
2019-05-19T02:05:23.290Z,16.90
2019-05-19T02:07:51.794Z,16.74
2019-05-19T02:10:20.331Z,16.80
2019-05-19T02:12:49.161Z,16.85
2019-05-19T02:15:17.659Z,16.55
2019-05-19T02:17:47.734Z,16.71
2019-05-19T02:20:16.245Z,16.81
2019-05-19T02:22:44.741Z,16.91
2019-05-19T02:25:13.511Z,16.79
2019-05-19T02:27:42.014Z,16.75
2019-05-19T02:30:10.571Z,16.75
2019-05-19T02:32:39.194Z,16.91
2019-05-19T02:35:07.770Z,16.90
2019-05-19T02:37:36.259Z,17.05
2019-05-19T02:40:05.434Z,17.13
2019-05-19T02:42:34.429Z,17.10
2019-05-19T02:45:03.081Z,17.17
2019-05-19T02:47:31.887Z,16.90
2019-05-19T02:50:00.681Z,16.92
2019-05-19T02:52:29.458Z,17.07
2019-05-19T02:54:57.977Z,17.01
2019-05-19T02:57:26.529Z,17.04
2019-05-19T02:59:55.056Z,17.08
2019-05-19T03:02:23.634Z,17.04
2019-05-19T03:04:52.152Z,17.12
2019-05-19T03:07:21.000Z,16.96
2019-05-19T03:09:49.827Z,16.99
2019-05-19T03:12:18.388Z,17.04
2019-05-19T03:14:46.881Z,17.06
2019-05-19T03:17:15.409Z,17.09
2019-05-19T03:19:44.503Z,17.08
2019-05-19T03:22:13.026Z,17.08
2019-05-19T03:24:41.800Z,17.15
2019-05-19T03:27:10.449Z,17.06
2019-05-19T03:29:43.413Z,16.97
2019-05-19T03:32:36.821Z,17.03
2019-05-19T03:35:05.397Z,17.04
2019-05-19T03:37:34.143Z,16.89
2019-05-19T03:40:04.906Z,16.82
2019-05-19T03:42:33.461Z,16.52
2019-05-19T03:45:02.338Z,16.84
2019-05-19T03:47:30.840Z,16.91
2019-05-19T03:49:59.416Z,16.66
2019-05-19T03:52:27.962Z,16.53
2019-05-19T03:54:56.599Z,16.73
2019-05-19T03:57:25.779Z,16.78
2019-05-19T03:59:54.298Z,16.76
2019-05-19T04:02:22.809Z,16.61
2019-05-19T04:04:51.607Z,16.69
2019-05-19T04:07:20.151Z,16.27
2019-05-19T04:09:48.685Z,16.59
2019-05-19T04:12:17.249Z,16.79
2019-05-19T04:14:46.050Z,16.90
2019-05-19T04:17:14.589Z,17.00
2019-05-19T04:19:43.765Z,17.07
2019-05-19T04:22:12.306Z,17.07
2019-05-19T04:24:44.029Z,17.04
2019-05-19T04:27:12.597Z,16.32
2019-05-19T04:29:41.126Z,16.02
2019-05-19T04:32:09.638Z,16.19
2019-05-19T04:34:38.173Z,16.16
2019-05-19T04:37:06.704Z,16.65
2019-05-19T04:39:35.223Z,16.99
2019-05-19T04:42:03.806Z,17.20
2019-05-19T04:44:32.656Z,17.26
2019-05-19T04:47:01.193Z,17.41
2019-05-19T04:49:29.727Z,17.44
2019-05-19T04:52:06.825Z,17.49
2019-05-19T04:54:29.053Z,17.51
2019-05-19T04:56:57.577Z,17.70
2019-05-19T04:59:26.185Z,17.85
2019-05-19T05:01:54.713Z,18.01
2019-05-19T05:04:28.790Z,17.93
2019-05-19T05:06:53.826Z,18.05
2019-05-19T05:09:22.355Z,18.21
2019-05-19T05:11:51.178Z,18.03
2019-05-19T05:14:19.709Z,18.20
2019-05-19T05:16:48.252Z,18.35
2019-05-19T05:19:16.784Z,18.33
2019-05-19T05:21:45.453Z,18.16
2019-05-19T05:24:13.976Z,18.08
2019-05-19T05:26:42.744Z,17.84
2019-05-19T05:29:11.540Z,17.70
2019-05-19T05:31:40.065Z,17.88
2019-05-19T05:34:08.850Z,17.26
2019-05-19T05:36:37.366Z,17.24
2019-05-19T05:39:06.579Z,17.02
2019-05-19T05:41:35.336Z,16.75
2019-05-19T05:44:03.877Z,16.70
2019-05-19T05:46:32.427Z,16.54
2019-05-19T05:49:01.312Z,16.20
2019-05-19T05:51:30.099Z,16.12
2019-05-19T05:53:58.726Z,16.05
2019-05-19T05:56:27.282Z,15.78
2019-05-19T05:58:55.883Z,16.38
2019-05-19T06:01:24.453Z,16.60
2019-05-19T06:03:53.311Z,16.54
2019-05-19T06:06:21.837Z,16.97
2019-05-19T06:08:50.445Z,16.88
2019-05-19T06:11:19.223Z,17.35
2019-05-19T06:13:49.515Z,17.02
2019-05-19T06:16:17.955Z,16.72
2019-05-19T06:18:46.475Z,16.86
2019-05-19T06:21:15.036Z,17.00
2019-05-19T06:23:43.571Z,17.92
2019-05-19T06:26:12.091Z,18.60
2019-05-19T06:28:40.622Z,19.17
2019-05-19T06:31:09.152Z,19.30
2019-05-19T06:33:37.900Z,19.68
2019-05-19T06:36:06.422Z,20.42
2019-05-19T06:38:35.271Z,21.21
2019-05-19T06:41:03.920Z,22.12
2019-05-19T06:43:32.722Z,23.22
2019-05-19T06:46:01.276Z,24.99
2019-05-19T06:48:29.811Z,25.76
2019-05-19T06:50:58.606Z,26.74
2019-05-19T06:53:27.139Z,28.04
2019-05-19T06:55:55.691Z,30.18
2019-05-19T06:58:24.466Z,29.64
2019-05-19T07:00:53.077Z,29.83
2019-05-19T07:03:21.947Z,32.21
2019-05-19T07:05:50.476Z,31.05
2019-05-19T07:08:19.123Z,29.30
2019-05-19T07:10:47.639Z,27.61
2019-05-19T07:13:16.428Z,25.79
2019-05-19T07:15:44.957Z,25.94
2019-05-19T07:18:13.479Z,25.06
2019-05-19T07:20:42.028Z,22.56
2019-05-19T07:23:11.068Z,21.45
2019-05-19T07:25:39.980Z,20.41
2019-05-19T07:28:08.551Z,19.68
2019-05-19T07:30:37.185Z,20.29
2019-05-19T07:33:05.946Z,19.35
2019-05-19T07:35:34.474Z,19.69
2019-05-19T07:38:03.676Z,20.11
2019-05-19T07:40:32.552Z,21.13
2019-05-19T07:43:01.454Z,22.00
2019-05-19T07:45:30.080Z,22.85
2019-05-19T07:47:59.243Z,23.31
2019-05-19T07:50:27.840Z,23.26
2019-05-19T07:52:56.507Z,23.41
2019-05-19T07:55:26.177Z,23.48
2019-05-19T07:57:55.073Z,23.60
2019-05-19T08:00:24.020Z,23.83
2019-05-19T08:02:52.602Z,24.47
2019-05-19T08:05:21.435Z,24.88
2019-05-19T08:07:50.033Z,25.67
2019-05-19T08:10:18.553Z,26.85
2019-05-19T08:12:47.008Z,27.47
2019-05-19T08:15:15.548Z,27.35
2019-05-19T08:17:44.095Z,27.53
2019-05-19T08:20:12.625Z,29.18
2019-05-19T08:22:41.169Z,30.14
2019-05-19T08:25:09.748Z,29.88
2019-05-19T08:27:38.685Z,29.36
2019-05-19T08:30:07.644Z,27.78
2019-05-19T08:32:36.227Z,27.34
2019-05-19T08:35:04.851Z,26.98
2019-05-19T08:37:33.437Z,27.64
2019-05-19T08:40:01.995Z,27.49
2019-05-19T08:42:30.764Z,27.79
2019-05-19T08:44:59.339Z,28.29
2019-05-19T08:47:27.942Z,29.06
2019-05-19T08:49:56.441Z,29.36
2019-05-19T08:52:24.960Z,29.98
2019-05-19T08:54:53.768Z,30.05
2019-05-19T08:57:22.587Z,29.92
2019-05-19T08:59:51.096Z,30.02
2019-05-19T09:02:19.621Z,29.41
2019-05-19T09:04:48.124Z,28.61
2019-05-19T09:07:17.136Z,29.36
2019-05-19T09:09:45.649Z,30.23
2019-05-19T09:12:14.164Z,32.98
2019-05-19T09:14:42.684Z,38.58
2019-05-19T09:17:11.224Z,43.18
2019-05-19T09:19:39.734Z,45.71
2019-05-19T09:22:08.284Z,47.05
2019-05-19T09:24:37.416Z,46.61
2019-05-19T09:27:06.165Z,46.52
2019-05-19T09:29:34.625Z,47.90
2019-05-19T09:32:03.153Z,47.64
2019-05-19T09:34:31.976Z,48.73
2019-05-19T09:37:00.735Z,49.14
2019-05-19T09:39:29.255Z,49.13
2019-05-19T09:41:58.004Z,49.15
2019-05-19T09:44:26.534Z,49.02
2019-05-19T09:46:55.127Z,48.47
2019-05-19T09:49:35.841Z,49.40
2019-05-19T09:52:05.228Z,49.16
2019-05-19T09:54:44.666Z,50.08
2019-05-19T09:57:04.303Z,47.88
2019-05-19T09:59:32.832Z,46.02
2019-05-19T10:02:01.446Z,45.93
2019-05-19T10:04:30.243Z,47.65
2019-05-19T10:06:59.201Z,49.22
2019-05-19T10:09:55.212Z,49.99
2019-05-19T10:12:24.040Z,49.93
2019-05-19T10:14:52.576Z,49.27
2019-05-19T10:17:21.421Z,47.90
2019-05-19T10:19:50.053Z,47.21
2019-05-19T10:22:19.094Z,46.98
2019-05-19T10:25:03.922Z,47.21
2019-05-19T10:27:21.392Z,47.22
2019-05-19T10:29:48.133Z,47.96
2019-05-19T10:32:17.401Z,46.87
2019-05-19T10:34:45.947Z,46.31
2019-05-19T10:37:14.449Z,47.07
2019-05-19T10:39:43.525Z,47.24
2019-05-19T10:42:12.474Z,46.01
2019-05-19T10:44:41.312Z,44.20
2019-05-19T10:47:09.829Z,43.63
2019-05-19T10:49:38.595Z,42.37
2019-05-19T10:52:07.125Z,41.11
2019-05-19T10:54:35.644Z,40.43
2019-05-19T10:57:04.185Z,38.96
2019-05-19T10:59:32.997Z,37.93
2019-05-19T11:02:01.785Z,37.67
2019-05-19T11:04:30.288Z,37.31
2019-05-19T11:06:58.809Z,36.60
2019-05-19T11:09:27.329Z,37.14
2019-05-19T11:11:56.081Z,36.98
2019-05-19T11:14:24.903Z,36.28
2019-05-19T11:16:53.415Z,36.18
2019-05-19T11:19:22.033Z,36.45
2019-05-19T11:21:50.584Z,37.11
2019-05-19T11:24:19.104Z,36.89
2019-05-19T11:26:47.623Z,36.92
2019-05-19T11:29:16.139Z,35.58
2019-05-19T11:31:44.656Z,35.73
2019-05-19T11:34:13.152Z,35.85
2019-05-19T11:36:41.711Z,35.68
2019-05-19T11:39:10.578Z,36.17
2019-05-19T11:41:39.383Z,36.32
2019-05-19T11:44:07.992Z,36.53
2019-05-19T11:46:36.855Z,34.85
2019-05-19T11:49:06.145Z,35.92
2019-05-19T11:51:34.663Z,36.53
2019-05-19T11:54:03.632Z,36.13
2019-05-19T11:56:32.141Z,35.28
2019-05-19T11:59:00.704Z,34.45
2019-05-19T12:01:29.177Z,33.88
2019-05-19T12:03:57.683Z,33.35
2019-05-19T12:06:38.918Z,33.19
2019-05-19T12:08:56.786Z,33.84
2019-05-19T12:11:25.298Z,33.91
2019-05-19T12:13:53.817Z,33.45
2019-05-19T12:16:22.333Z,32.72
2019-05-19T12:18:51.227Z,32.30
2019-05-19T12:21:19.750Z,32.18
2019-05-19T12:23:48.596Z,32.01
2019-05-19T12:26:23.263Z,32.32
2019-05-19T12:28:47.726Z,32.10
2019-05-19T12:31:16.232Z,33.00
2019-05-19T12:33:52.105Z,34.34
2019-05-19T12:36:15.798Z,35.53
2019-05-19T12:38:44.341Z,35.90
2019-05-19T12:41:12.827Z,35.15
2019-05-19T12:43:41.439Z,34.31
2019-05-19T12:46:16.492Z,34.28
2019-05-19T12:48:40.910Z,33.86
2019-05-19T12:51:09.675Z,33.97
2019-05-19T12:53:38.201Z,33.36
2019-05-19T12:56:06.963Z,32.95
2019-05-19T12:58:35.736Z,33.42
2019-05-19T13:01:04.257Z,33.42
2019-05-19T13:03:32.794Z,33.08
2019-05-19T13:06:01.283Z,33.02
2019-05-19T13:08:30.117Z,32.98
2019-05-19T13:10:58.702Z,32.83
2019-05-19T13:13:27.244Z,32.80
2019-05-19T13:15:55.746Z,33.04
2019-05-19T13:18:24.537Z,32.95
2019-05-19T13:20:53.049Z,32.83
2019-05-19T13:23:21.583Z,32.66
2019-05-19T13:25:50.324Z,32.53
2019-05-19T13:28:18.916Z,32.35
2019-05-19T13:30:47.509Z,32.58
2019-05-19T13:33:16.013Z,32.16
2019-05-19T13:35:44.531Z,32.33
2019-05-19T13:38:13.049Z,32.89
2019-05-19T13:40:41.574Z,33.30
2019-05-19T13:43:10.102Z,33.21
2019-05-19T13:45:38.662Z,33.48
2019-05-19T13:48:07.196Z,33.81
2019-05-19T13:50:35.723Z,33.04
2019-05-19T13:53:05.145Z,32.38
2019-05-19T13:55:33.763Z,31.90
2019-05-19T13:58:03.605Z,31.22
2019-05-19T14:00:32.180Z,30.85
2019-05-19T14:03:00.843Z,30.27
2019-05-19T14:05:29.916Z,29.38
2019-05-19T14:07:58.677Z,28.92
2019-05-19T14:10:27.309Z,28.61
2019-05-19T14:12:55.824Z,28.40
2019-05-19T14:15:24.618Z,28.20
2019-05-19T14:17:53.159Z,28.19
2019-05-19T14:20:21.775Z,28.13
2019-05-19T14:22:50.303Z,27.91
2019-05-19T14:25:18.821Z,27.84
2019-05-19T14:27:47.336Z,27.92
2019-05-19T14:30:16.181Z,28.04
2019-05-19T14:32:44.705Z,28.32
2019-05-19T14:35:13.241Z,28.08
2019-05-19T14:37:41.768Z,28.15
2019-05-19T14:40:10.280Z,28.14
2019-05-19T14:43:03.663Z,28.52
2019-05-19T14:45:32.444Z,29.09
2019-05-19T14:48:01.011Z,29.37
2019-05-19T14:50:29.539Z,29.78
2019-05-19T14:52:58.046Z,30.19
2019-05-19T14:55:26.635Z,30.43
2019-05-19T14:57:55.411Z,30.32
2019-05-19T15:00:24.000Z,29.84
2019-05-19T15:02:52.515Z,29.71
2019-05-19T15:05:21.051Z,30.02
2019-05-19T15:07:51.282Z,30.15
2019-05-19T15:10:19.756Z,30.16
2019-05-19T15:12:48.621Z,29.97
2019-05-19T15:15:17.635Z,29.79
2019-05-19T15:17:46.174Z,29.80
2019-05-19T15:20:15.568Z,29.65
2019-05-19T15:22:44.383Z,29.86
2019-05-19T15:25:13.124Z,29.88
2019-05-19T15:27:41.636Z,29.72
2019-05-19T15:30:13.644Z,29.84
2019-05-19T15:32:40.387Z,29.65
2019-05-19T15:35:09.170Z,29.25
2019-05-19T15:37:37.747Z,29.32
2019-05-19T15:40:06.396Z,29.40
2019-05-19T15:42:35.421Z,29.25
2019-05-19T15:45:03.967Z,29.64
2019-05-19T15:47:32.482Z,29.66
2019-05-19T15:50:01.000Z,29.58
2019-05-19T15:52:29.518Z,29.79
2019-05-19T15:54:58.063Z,29.51
2019-05-19T15:57:28.612Z,29.49
2019-05-19T15:59:57.185Z,29.56
2019-05-19T16:02:25.676Z,29.69
2019-05-19T16:04:54.734Z,29.75
2019-05-19T16:07:23.568Z,29.38
2019-05-19T16:09:52.060Z,29.16
2019-05-19T16:12:20.639Z,28.69
2019-05-19T16:14:49.168Z,29.26
2019-05-19T16:17:17.666Z,29.03
2019-05-19T16:19:46.177Z,28.74
2019-05-19T16:22:15.045Z,28.38
2019-05-19T16:24:43.633Z,27.76
2019-05-19T16:27:12.897Z,27.64
2019-05-19T16:29:41.915Z,27.33
2019-05-19T16:32:10.439Z,27.09
2019-05-19T16:34:38.992Z,27.25
2019-05-19T16:37:07.870Z,27.31
2019-05-19T16:39:36.711Z,27.41
2019-05-19T16:42:05.470Z,27.22
2019-05-19T16:44:34.277Z,26.96
2019-05-19T16:47:03.039Z,26.84
2019-05-19T16:49:31.833Z,26.74
2019-05-19T16:52:00.379Z,26.76
2019-05-19T16:54:33.285Z,26.49
2019-05-19T16:57:02.149Z,26.20
2019-05-19T16:59:30.656Z,25.96
2019-05-19T17:01:59.487Z,25.86
2019-05-19T17:04:28.000Z,25.92
2019-05-19T17:06:56.515Z,25.94
2019-05-19T17:09:25.350Z,25.89
2019-05-19T17:11:53.843Z,26.04
2019-05-19T17:14:22.459Z,26.20
2019-05-19T17:16:51.519Z,26.28
2019-05-19T17:19:20.324Z,26.44
2019-05-19T17:21:48.828Z,26.47
2019-05-19T17:24:17.683Z,26.31
2019-05-19T17:26:46.293Z,26.06
2019-05-19T17:29:14.808Z,25.79
2019-05-19T17:31:43.375Z,25.93
2019-05-19T17:34:11.876Z,25.86
2019-05-19T17:36:40.379Z,25.70
2019-05-19T17:39:08.883Z,25.30
2019-05-19T17:41:37.398Z,24.88
2019-05-19T17:44:05.920Z,24.86
2019-05-19T17:46:34.439Z,25.07
2019-05-19T17:49:02.955Z,25.03
2019-05-19T17:51:31.456Z,25.04
2019-05-19T17:54:00.228Z,25.00
2019-05-19T17:56:28.848Z,24.91
2019-05-19T17:58:57.413Z,24.83
2019-05-19T18:01:26.260Z,24.78
2019-05-19T18:03:54.763Z,24.70
2019-05-19T18:06:23.268Z,24.59
2019-05-19T18:08:51.771Z,24.78
2019-05-19T18:11:20.284Z,24.66
2019-05-19T18:13:48.815Z,24.60
2019-05-19T18:16:17.356Z,24.20
2019-05-19T18:18:45.878Z,23.37
2019-05-19T18:21:14.644Z,23.32
2019-05-19T18:23:43.130Z,23.61
2019-05-19T18:26:11.642Z,23.74
2019-05-19T18:28:40.189Z,23.79
2019-05-19T18:31:08.697Z,23.66
2019-05-19T18:33:37.945Z,23.59
2019-05-19T18:36:06.472Z,23.38
2019-05-19T18:38:34.991Z,23.41
2019-05-19T18:41:03.545Z,23.31
2019-05-19T18:43:32.135Z,23.26
2019-05-19T18:46:00.642Z,23.21
2019-05-19T18:48:29.440Z,23.18
2019-05-19T18:50:58.352Z,23.14
2019-05-19T18:53:27.364Z,23.09
2019-05-19T18:55:55.880Z,23.05
2019-05-19T18:58:24.413Z,22.88
2019-05-19T19:00:53.203Z,22.71
2019-05-19T19:03:21.815Z,22.60
2019-05-19T19:05:50.348Z,22.54
2019-05-19T19:08:18.849Z,22.47
2019-05-19T19:10:47.363Z,22.29
2019-05-19T19:13:15.964Z,22.19
2019-05-19T19:15:44.485Z,22.11
2019-05-19T19:18:12.999Z,22.10
2019-05-19T19:20:41.521Z,22.06
2019-05-19T19:23:10.105Z,21.92
2019-05-19T19:25:38.661Z,22.05
2019-05-19T19:28:07.435Z,21.95
2019-05-19T19:30:35.943Z,21.73
2019-05-19T19:33:04.843Z,21.77
2019-05-19T19:35:39.197Z,21.73
2019-05-19T19:38:03.649Z,21.71
2019-05-19T19:40:32.497Z,21.82
2019-05-19T19:43:01.126Z,21.71
2019-05-19T19:45:29.634Z,21.59
2019-05-19T19:47:58.473Z,21.59
2019-05-19T19:50:27.293Z,21.41
2019-05-19T19:52:55.920Z,21.30
2019-05-19T19:55:24.447Z,21.23
2019-05-19T19:57:54.491Z,21.18
2019-05-19T20:00:42.959Z,21.28
2019-05-19T20:03:11.593Z,21.32
2019-05-19T20:05:40.374Z,21.34
2019-05-19T20:08:09.186Z,21.45
2019-05-19T20:10:37.813Z,21.52
2019-05-19T20:13:06.346Z,21.56
2019-05-19T20:15:35.631Z,21.48
2019-05-19T20:18:04.193Z,21.41
2019-05-19T20:20:33.038Z,21.28
2019-05-19T20:23:01.947Z,21.12
2019-05-19T20:25:30.520Z,20.99
2019-05-19T20:27:59.131Z,21.05
2019-05-19T20:30:35.687Z,20.96
2019-05-19T20:32:57.937Z,20.89
2019-05-19T20:35:26.490Z,20.65
2019-05-19T20:37:55.008Z,20.69
2019-05-19T20:40:23.956Z,20.63
2019-05-19T20:42:53.073Z,20.62
2019-05-19T20:45:21.588Z,20.67
2019-05-19T20:47:50.105Z,20.65
2019-05-19T20:50:19.193Z,20.48
2019-05-19T20:52:47.953Z,20.48
2019-05-19T20:55:16.470Z,20.41
2019-05-19T20:57:45.836Z,20.33
2019-05-19T21:00:14.689Z,20.28
2019-05-19T21:02:43.422Z,20.26
2019-05-19T21:05:11.926Z,20.30
2019-05-19T21:07:40.774Z,20.28
2019-05-19T21:10:09.285Z,20.21
2019-05-19T21:12:37.798Z,20.25
2019-05-19T21:15:06.399Z,20.21
2019-05-19T21:17:34.935Z,20.28
2019-05-19T21:20:03.830Z,20.13
2019-05-19T21:22:32.387Z,20.12
2019-05-19T21:25:00.911Z,20.11
2019-05-19T21:27:29.663Z,19.90
2019-05-19T21:29:58.196Z,19.73
2019-05-19T21:32:26.705Z,19.77
2019-05-19T21:34:55.245Z,19.76
2019-05-19T21:37:24.076Z,19.94
2019-05-19T21:39:53.094Z,19.75
2019-05-19T21:42:21.610Z,19.86
2019-05-19T21:44:50.184Z,19.78
2019-05-19T21:47:18.997Z,19.60
2019-05-19T21:49:47.484Z,19.61
2019-05-19T21:52:17.572Z,19.43
2019-05-19T21:54:46.428Z,19.56
2019-05-19T21:57:14.932Z,19.41
2019-05-19T21:59:43.451Z,19.27
2019-05-19T22:02:12.003Z,19.14
2019-05-19T22:04:40.533Z,19.19
2019-05-19T22:07:15.856Z,19.19
2019-05-19T22:09:44.715Z,19.27
2019-05-19T22:12:13.495Z,19.28
2019-05-19T22:14:42.014Z,19.19
2019-05-19T22:17:10.866Z,19.04
2019-05-19T22:19:39.385Z,19.05
2019-05-19T22:22:07.940Z,18.90
2019-05-19T22:24:36.517Z,18.88
2019-05-19T22:27:05.634Z,18.96
2019-05-19T22:29:34.158Z,18.92
2019-05-19T22:32:02.661Z,18.93
2019-05-19T22:34:31.189Z,18.83
2019-05-19T22:36:59.709Z,18.69
2019-05-19T22:39:28.553Z,18.76
2019-05-19T22:41:57.089Z,18.64
2019-05-19T22:44:25.582Z,18.60
2019-05-19T22:46:54.097Z,18.48
2019-05-19T22:49:22.601Z,18.56
2019-05-19T22:51:51.116Z,18.61
2019-05-19T22:54:19.612Z,18.47
2019-05-19T22:56:48.128Z,18.41
2019-05-19T22:59:19.770Z,18.46
2019-05-19T23:01:51.672Z,18.49
2019-05-19T23:04:17.460Z,18.28
2019-05-19T23:06:46.248Z,18.33
2019-05-19T23:09:14.765Z,18.37
2019-05-19T23:11:43.637Z,18.32
2019-05-19T23:14:12.403Z,18.42
2019-05-19T23:16:40.933Z,18.28
2019-05-19T23:19:09.448Z,18.24
2019-05-19T23:21:37.964Z,18.36
2019-05-19T23:24:06.487Z,18.28
2019-05-19T23:26:35.001Z,18.19
2019-05-19T23:29:03.543Z,18.15
2019-05-19T23:31:32.466Z,18.10
2019-05-19T23:34:00.994Z,18.17
2019-05-19T23:36:29.491Z,18.14
2019-05-19T23:38:58.019Z,18.22
2019-05-19T23:41:26.871Z,18.17
2019-05-19T23:43:55.391Z,18.09
2019-05-19T23:46:24.521Z,18.04
2019-05-19T23:48:53.269Z,18.13
2019-05-19T23:51:21.778Z,18.01
2019-05-19T23:53:50.293Z,18.10
2019-05-19T23:56:18.904Z,17.99
2019-05-19T23:58:47.413Z,17.86
